createdAt,value
2024-05-09T00:01:59.876Z,99653.33
2024-05-09T00:04:31.371Z,99654.17
2024-05-09T00:07:02.827Z,99655.95
2024-05-09T00:09:34.075Z,99652.86
2024-05-09T00:12:06.089Z,99653.97
2024-05-09T00:14:37.316Z,99652.96
2024-05-09T00:17:08.582Z,99656.45
2024-05-09T00:19:39.815Z,99652.48
2024-05-09T00:22:11.443Z,99653.14
2024-05-09T00:24:42.497Z,99651.08
2024-05-09T00:27:13.714Z,99653.17
2024-05-09T00:29:44.833Z,99647.86
2024-05-09T00:32:16.302Z,99648.71
2024-05-09T00:34:47.670Z,99650.41
2024-05-09T00:37:18.713Z,99649.27
2024-05-09T00:39:49.748Z,99647.45
2024-05-09T00:42:19.466Z,99648.89
2024-05-09T00:44:48.963Z,99649.52
2024-05-09T00:47:20.161Z,99651.64
2024-05-09T00:49:51.604Z,99647.01
2024-05-09T00:52:23.341Z,99651.87
2024-05-09T00:54:54.576Z,99651.48
2024-05-09T00:57:26.542Z,99652.53
2024-05-09T00:59:57.929Z,99652.35
2024-05-09T01:02:29.401Z,99650.88
2024-05-09T01:05:01.148Z,99649.68
2024-05-09T01:07:32.612Z,99647.10
2024-05-09T01:10:05.634Z,99650.14
2024-05-09T01:12:40.192Z,99648.73
2024-05-09T01:15:11.252Z,99647.87
2024-05-09T01:17:43.327Z,99648.06
2024-05-09T01:20:20.202Z,99649.80
2024-05-09T01:23:00.658Z,99652.98
2024-05-09T01:25:32.758Z,99653.73
2024-05-09T01:28:04.219Z,99654.88
2024-05-09T01:30:37.402Z,99654.52
2024-05-09T01:33:11.305Z,99649.09
2024-05-09T01:35:43.615Z,99656.48
2024-05-09T01:38:17.028Z,99655.73
2024-05-09T01:40:49.140Z,99652.23
2024-05-09T01:43:20.335Z,99653.68
2024-05-09T01:45:49.998Z,99656.44
2024-05-09T01:48:20.461Z,99654.09
2024-05-09T01:50:51.683Z,99652.15
2024-05-09T01:53:23.030Z,99649.84
2024-05-09T01:55:54.366Z,99648.52
2024-05-09T01:58:26.236Z,99644.92
2024-05-09T02:00:57.414Z,99644.70
2024-05-09T02:03:29.899Z,99642.93
2024-05-09T02:06:01.430Z,99645.60
2024-05-09T02:08:33.386Z,99646.23
2024-05-09T02:11:05.127Z,99637.31
2024-05-09T02:13:36.524Z,99639.06
2024-05-09T02:16:12.872Z,99639.58
2024-05-09T02:18:44.072Z,99637.27
2024-05-09T02:21:15.352Z,99635.55
2024-05-09T02:23:46.688Z,99633.77
2024-05-09T02:26:17.975Z,99636.27
2024-05-09T02:28:49.083Z,99637.60
2024-05-09T02:31:20.389Z,99643.19
2024-05-09T02:33:53.952Z,99645.67
2024-05-09T02:36:25.539Z,99648.81
2024-05-09T02:38:56.851Z,99643.27
2024-05-09T02:41:28.258Z,99638.21
2024-05-09T02:43:59.625Z,99638.05
2024-05-09T02:46:30.895Z,99638.20
2024-05-09T02:49:02.087Z,99634.56
2024-05-09T02:51:33.220Z,99630.13
2024-05-09T02:54:03.090Z,99631.94
2024-05-09T02:56:32.826Z,99636.02
2024-05-09T02:59:04.049Z,99634.17
2024-05-09T03:01:35.372Z,99640.19
2024-05-09T03:04:07.733Z,99640.15
2024-05-09T03:06:43.581Z,99635.75
2024-05-09T03:09:14.900Z,99636.56
2024-05-09T03:11:46.803Z,99633.42
2024-05-09T03:14:19.538Z,99629.86
2024-05-09T03:16:50.766Z,99627.86
2024-05-09T03:19:22.245Z,99627.09
2024-05-09T03:21:53.659Z,99627.65
2024-05-09T03:24:25.017Z,99628.85
2024-05-09T03:26:56.068Z,99630.91
2024-05-09T03:29:27.214Z,99625.15
2024-05-09T03:31:58.402Z,99626.48
2024-05-09T03:34:29.400Z,99629.03
2024-05-09T03:37:00.646Z,99629.83
2024-05-09T03:39:32.009Z,99629.77
2024-05-09T03:42:03.219Z,99627.71
2024-05-09T03:44:34.422Z,99630.45
2024-05-09T03:47:05.912Z,99630.67
2024-05-09T03:49:37.231Z,99628.63
2024-05-09T03:52:09.137Z,99627.00
2024-05-09T03:54:47.478Z,99627.88
2024-05-09T03:57:18.699Z,99626.83
2024-05-09T03:59:50.064Z,99632.78
2024-05-09T04:02:19.929Z,99629.63
2024-05-09T04:04:51.828Z,99631.05
2024-05-09T04:07:23.043Z,99631.06
2024-05-09T04:09:54.363Z,99638.65
2024-05-09T04:12:25.629Z,99637.66
2024-05-09T04:14:56.921Z,99636.48
2024-05-09T04:17:28.991Z,99633.09
2024-05-09T04:20:01.125Z,99640.05
2024-05-09T04:22:32.506Z,99636.23
2024-05-09T04:25:03.633Z,99641.73
2024-05-09T04:27:34.651Z,99640.23
2024-05-09T04:30:07.794Z,99643.67
2024-05-09T04:32:41.052Z,99648.32
2024-05-09T04:35:12.450Z,99650.95
2024-05-09T04:37:44.339Z,99651.41
2024-05-09T04:40:24.268Z,99657.03
2024-05-09T04:43:02.652Z,99657.77
2024-05-09T04:45:33.769Z,99654.82
2024-05-09T04:48:03.802Z,99652.17
2024-05-09T04:50:38.346Z,99655.23
2024-05-09T04:53:15.648Z,99654.38
2024-05-09T04:55:46.955Z,99653.83
2024-05-09T04:58:18.509Z,99653.80
2024-05-09T05:00:49.671Z,99654.48
2024-05-09T05:03:20.974Z,99656.63
2024-05-09T05:05:52.515Z,99656.40
2024-05-09T05:08:23.758Z,99659.57
2024-05-09T05:10:55.417Z,99659.95
2024-05-09T05:13:31.738Z,99662.96
2024-05-09T05:16:02.708Z,99665.92
2024-05-09T05:18:32.490Z,99666.09
2024-05-09T05:21:02.323Z,99669.44
2024-05-09T05:23:33.988Z,99667.62
2024-05-09T05:26:06.042Z,99669.30
2024-05-09T05:28:37.098Z,99666.79
2024-05-09T05:31:08.668Z,99670.33
2024-05-09T05:33:39.755Z,99668.39
2024-05-09T05:36:11.611Z,99668.39
2024-05-09T05:38:43.052Z,99672.36
2024-05-09T05:41:14.185Z,99675.05
2024-05-09T05:43:45.686Z,99675.89
2024-05-09T05:46:17.121Z,99676.25
2024-05-09T05:48:48.450Z,99672.44
2024-05-09T05:51:19.811Z,99672.79
2024-05-09T05:53:51.233Z,99672.59
2024-05-09T05:56:22.956Z,99676.63
2024-05-09T05:58:53.971Z,99677.06
2024-05-09T06:01:23.830Z,99678.02
2024-05-09T06:03:55.053Z,99680.63
2024-05-09T06:06:26.251Z,99678.97
2024-05-09T06:08:57.622Z,99678.10
2024-05-09T06:11:28.913Z,99679.49
2024-05-09T06:14:01.622Z,99678.11
2024-05-09T06:16:32.987Z,99681.02
2024-05-09T06:19:04.299Z,99679.81
2024-05-09T06:21:35.614Z,99683.66
2024-05-09T06:24:08.078Z,99680.30
2024-05-09T06:26:42.022Z,99676.98
2024-05-09T06:29:13.978Z,99677.84
2024-05-09T06:31:46.239Z,99679.59
2024-05-09T06:34:20.496Z,99681.52
2024-05-09T06:36:51.891Z,99681.56
2024-05-09T06:39:23.538Z,99681.70
2024-05-09T06:41:54.897Z,99678.04
2024-05-09T06:44:26.263Z,99677.95
2024-05-09T06:46:59.619Z,99678.21
2024-05-09T06:49:31.532Z,99674.04
2024-05-09T06:52:02.669Z,99674.27
2024-05-09T06:54:33.879Z,99672.63
2024-05-09T06:57:05.384Z,99672.88
2024-05-09T06:59:36.199Z,99669.86
2024-05-09T07:02:09.716Z,99669.52
2024-05-09T07:04:40.786Z,99667.23
2024-05-09T07:07:12.207Z,99669.80
2024-05-09T07:09:43.336Z,99675.27
2024-05-09T07:12:14.472Z,99671.59
2024-05-09T07:14:45.673Z,99672.30
2024-05-09T07:17:16.914Z,99672.33
2024-05-09T07:19:48.014Z,99676.85
2024-05-09T07:22:19.090Z,99677.73
2024-05-09T07:24:50.050Z,99670.17
2024-05-09T07:27:21.123Z,99671.27
2024-05-09T07:29:51.987Z,99666.52
2024-05-09T07:32:23.744Z,99666.10
2024-05-09T07:34:54.901Z,99669.14
2024-05-09T07:37:26.542Z,99666.10
2024-05-09T07:39:58.009Z,99663.38
2024-05-09T07:42:29.192Z,99665.14
2024-05-09T07:45:17.712Z,99661.52
2024-05-09T07:49:16.424Z,99662.02
2024-05-09T07:53:38.311Z,99668.21
2024-05-09T07:56:10.430Z,99666.34
2024-05-09T07:58:46.177Z,99659.36
2024-05-09T08:01:17.727Z,99660.69
2024-05-09T08:03:49.072Z,99657.19
2024-05-09T08:06:20.578Z,99653.33
2024-05-09T08:08:52.048Z,99651.02
2024-05-09T08:11:24.117Z,99653.38
2024-05-09T08:13:55.596Z,99654.89
2024-05-09T08:16:27.174Z,99656.54
2024-05-09T08:18:58.930Z,99651.92
2024-05-09T08:21:30.492Z,99646.48
2024-05-09T08:24:01.988Z,99641.23
2024-05-09T08:26:33.153Z,99640.27
2024-05-09T08:29:04.672Z,99637.23
2024-05-09T08:31:39.333Z,99639.40
2024-05-09T08:34:12.105Z,99637.76
2024-05-09T08:36:43.420Z,99639.62
2024-05-09T08:39:14.699Z,99632.11
2024-05-09T08:41:52.015Z,99628.57
2024-05-09T08:44:24.152Z,99633.33
2024-05-09T08:46:56.529Z,99634.91
2024-05-09T08:49:28.658Z,99634.06
2024-05-09T08:51:59.932Z,99632.15
2024-05-09T08:54:32.763Z,99626.66
2024-05-09T08:57:05.174Z,99624.15
2024-05-09T08:59:37.396Z,99622.44
2024-05-09T09:02:12.556Z,99625.64
2024-05-09T09:04:49.223Z,99627.51
2024-05-09T09:07:22.509Z,99628.02
2024-05-09T09:09:54.776Z,99625.61
2024-05-09T09:12:25.866Z,99627.90
2024-05-09T09:14:56.982Z,99627.08
2024-05-09T09:17:28.135Z,99624.48
2024-05-09T09:20:00.362Z,99617.36
2024-05-09T09:22:35.049Z,99616.34
2024-05-09T09:25:06.827Z,99615.82
2024-05-09T09:27:38.303Z,99610.79
2024-05-09T09:30:22.961Z,99609.70
2024-05-09T09:33:02.223Z,99604.63
2024-05-09T09:35:33.495Z,99603.36
2024-05-09T09:38:06.072Z,99599.31
2024-05-09T09:40:43.168Z,99610.23
2024-05-09T09:43:22.520Z,99606.34
2024-05-09T09:45:55.820Z,99604.52
2024-05-09T09:48:28.256Z,99604.43
2024-05-09T09:51:00.462Z,99602.63
2024-05-09T09:53:32.714Z,99602.53
2024-05-09T09:56:04.086Z,99606.61
2024-05-09T09:58:37.036Z,99606.19
2024-05-09T10:01:10.188Z,99600.73
2024-05-09T10:03:41.677Z,99603.27
2024-05-09T10:06:15.194Z,99601.08
2024-05-09T10:08:48.057Z,99601.34
2024-05-09T10:11:23.131Z,99597.08
2024-05-09T10:13:54.790Z,99594.36
2024-05-09T10:16:31.108Z,99592.48
2024-05-09T10:19:02.486Z,99591.82
2024-05-09T10:21:34.164Z,99593.97
2024-05-09T10:24:06.807Z,99594.17
2024-05-09T10:26:38.996Z,99591.77
2024-05-09T10:29:18.425Z,99593.19
2024-05-09T10:31:50.106Z,99593.77
2024-05-09T10:34:22.880Z,99587.53
2024-05-09T10:36:55.867Z,99584.13
2024-05-09T10:39:28.004Z,99581.20
2024-05-09T10:41:59.236Z,99580.59
2024-05-09T10:44:30.411Z,99581.17
2024-05-09T10:47:01.377Z,99583.85
2024-05-09T10:49:32.812Z,99581.10
2024-05-09T10:52:06.407Z,99578.19
2024-05-09T10:54:41.027Z,99573.52
2024-05-09T10:57:12.341Z,99568.69
2024-05-09T10:59:43.095Z,99565.39
2024-05-09T11:02:14.772Z,99564.34
2024-05-09T11:04:46.387Z,99559.13
2024-05-09T11:07:20.010Z,99555.67
2024-05-09T11:09:51.184Z,99552.75
2024-05-09T11:12:24.703Z,99552.60
2024-05-09T11:14:56.529Z,99550.35
2024-05-09T11:17:27.728Z,99544.81
2024-05-09T11:20:00.076Z,99544.67
2024-05-09T11:22:34.648Z,99547.82
2024-05-09T11:25:06.618Z,99543.82
2024-05-09T11:27:40.731Z,99540.34
2024-05-09T11:30:27.010Z,99541.23
2024-05-09T11:33:02.902Z,99539.85
2024-05-09T11:35:34.122Z,99534.80
2024-05-09T11:38:05.472Z,99529.90
2024-05-09T11:40:38.115Z,99525.55
2024-05-09T11:43:09.413Z,99525.37
2024-05-09T11:45:40.486Z,99526.08
2024-05-09T11:48:11.991Z,99523.80
2024-05-09T11:50:43.301Z,99529.21
2024-05-09T11:53:14.765Z,99527.28
2024-05-09T11:55:45.739Z,99516.63
2024-05-09T11:58:18.062Z,99511.91
2024-05-09T12:00:50.026Z,99508.77
2024-05-09T12:03:21.502Z,99514.53
2024-05-09T12:05:52.878Z,99513.30
2024-05-09T12:08:24.278Z,99509.64
2024-05-09T12:10:55.671Z,99511.05
2024-05-09T12:13:26.899Z,99509.48
2024-05-09T12:15:57.992Z,99506.50
2024-05-09T12:18:28.879Z,99504.39
2024-05-09T12:21:00.083Z,99500.73
2024-05-09T12:23:30.946Z,99493.23
2024-05-09T12:26:02.749Z,99492.71
2024-05-09T12:28:33.864Z,99489.91
2024-05-09T12:31:05.019Z,99490.95
2024-05-09T12:33:36.660Z,99486.92
2024-05-09T12:36:08.627Z,99484.82
2024-05-09T12:38:40.845Z,99486.75
2024-05-09T12:41:11.801Z,99486.23
2024-05-09T12:43:42.978Z,99484.67
2024-05-09T12:46:14.945Z,99487.28
2024-05-09T12:48:46.010Z,99479.06
2024-05-09T12:51:17.010Z,99480.43
2024-05-09T12:53:48.461Z,99470.77
2024-05-09T12:56:19.378Z,99465.82
2024-05-09T12:58:51.995Z,99457.36
2024-05-09T13:01:22.872Z,99456.27
2024-05-09T13:03:54.275Z,99459.58
2024-05-09T13:06:25.583Z,99457.84
2024-05-09T13:08:56.934Z,99453.15
2024-05-09T13:11:27.834Z,99453.86
2024-05-09T13:13:58.968Z,99449.02
2024-05-09T13:16:30.705Z,99444.84
2024-05-09T13:19:02.119Z,99445.35
2024-05-09T13:21:33.120Z,99445.52
2024-05-09T13:24:04.309Z,99443.55
2024-05-09T13:26:35.310Z,99442.14
2024-05-09T13:29:06.388Z,99441.06
2024-05-09T13:31:37.475Z,99441.04
2024-05-09T13:34:08.627Z,99442.95
2024-05-09T13:36:39.890Z,99440.77
2024-05-09T13:39:10.860Z,99438.08
2024-05-09T13:41:42.157Z,99435.70
2024-05-09T13:44:13.191Z,99433.30
2024-05-09T13:46:44.215Z,99426.36
2024-05-09T13:49:16.836Z,99426.27
2024-05-09T13:51:48.045Z,99425.63
2024-05-09T13:54:21.905Z,99424.20
2024-05-09T13:56:53.764Z,99423.02
2024-05-09T13:59:24.741Z,99420.48
2024-05-09T14:01:55.678Z,99419.84
2024-05-09T14:04:27.162Z,99417.65
2024-05-09T14:06:58.541Z,99409.20
2024-05-09T14:09:29.872Z,99410.55
2024-05-09T14:12:00.821Z,99406.09
2024-05-09T14:14:32.103Z,99399.42
2024-05-09T14:17:03.333Z,99393.27
2024-05-09T14:19:34.483Z,99389.77
2024-05-09T14:22:06.390Z,99388.33
2024-05-09T14:24:37.734Z,99382.35
2024-05-09T14:27:08.903Z,99378.11
2024-05-09T14:29:39.708Z,99372.28
2024-05-09T14:32:10.778Z,99372.06
2024-05-09T14:34:41.907Z,99370.96
2024-05-09T14:37:12.984Z,99371.72
2024-05-09T14:39:44.079Z,99376.86
2024-05-09T14:42:15.252Z,99375.07
2024-05-09T14:44:46.230Z,99378.77
2024-05-09T14:47:18.155Z,99370.46
2024-05-09T14:49:49.028Z,99370.52
2024-05-09T14:52:19.963Z,99367.72
2024-05-09T14:54:59.929Z,99365.82
2024-05-09T14:57:31.700Z,99366.94
2024-05-09T15:00:05.046Z,99367.33
2024-05-09T15:02:36.051Z,99363.32
2024-05-09T15:05:10.569Z,99357.85
2024-05-09T15:07:45.444Z,99353.73
2024-05-09T15:10:23.865Z,99347.87
2024-05-09T15:13:02.330Z,99347.02
2024-05-09T15:15:33.178Z,99345.33
2024-05-09T15:18:06.329Z,99339.63
2024-05-09T15:20:38.050Z,99338.89
2024-05-09T15:23:09.181Z,99336.70
2024-05-09T15:25:40.379Z,99334.59
2024-05-09T15:28:11.786Z,99329.00
2024-05-09T15:30:46.198Z,99327.63
2024-05-09T15:33:18.472Z,99322.98
2024-05-09T15:35:51.504Z,99322.70
2024-05-09T15:38:23.114Z,99322.39
2024-05-09T15:40:54.134Z,99323.72
2024-05-09T15:43:27.146Z,99324.29
2024-05-09T15:45:58.121Z,99322.09
2024-05-09T15:48:29.332Z,99318.30
2024-05-09T15:51:00.757Z,99320.09
2024-05-09T15:53:32.036Z,99319.73
2024-05-09T15:56:03.468Z,99314.42
2024-05-09T15:58:34.538Z,99307.76
2024-05-09T16:01:05.947Z,99311.98
2024-05-09T16:03:37.366Z,99311.98
2024-05-09T16:06:08.866Z,99306.60
2024-05-09T16:08:40.075Z,99307.03
2024-05-09T16:11:13.119Z,99304.95
2024-05-09T16:13:44.458Z,99299.85
2024-05-09T16:16:15.720Z,99300.70
2024-05-09T16:18:46.840Z,99299.45
2024-05-09T16:21:17.766Z,99301.15
2024-05-09T16:23:48.597Z,99299.04
2024-05-09T16:26:19.587Z,99301.36
2024-05-09T16:28:51.697Z,99296.95
2024-05-09T16:31:22.865Z,99291.13
2024-05-09T16:33:53.887Z,99292.05
2024-05-09T16:36:25.202Z,99289.23
2024-05-09T16:38:56.396Z,99290.49
2024-05-09T16:41:27.665Z,99292.40
2024-05-09T16:43:58.631Z,99289.23
2024-05-09T16:46:29.776Z,99284.98
2024-05-09T16:49:01.006Z,99287.35
2024-05-09T16:51:32.228Z,99282.46
2024-05-09T16:54:03.339Z,99281.60
2024-05-09T16:56:34.315Z,99284.92
2024-05-09T16:59:05.281Z,99287.48
2024-05-09T17:01:36.417Z,99288.92
2024-05-09T17:04:07.750Z,99292.13
2024-05-09T17:06:39.208Z,99290.39
2024-05-09T17:09:12.003Z,99291.80
2024-05-09T17:11:46.560Z,99285.02
2024-05-09T17:14:19.173Z,99281.34
2024-05-09T17:16:50.662Z,99282.02
2024-05-09T17:19:22.285Z,99284.34
2024-05-09T17:21:53.242Z,99289.80
2024-05-09T17:24:24.189Z,99291.16
2024-05-09T17:26:55.212Z,99290.90
2024-05-09T17:29:27.194Z,99288.00
2024-05-09T17:31:58.338Z,99289.80
2024-05-09T17:34:29.544Z,99287.38
2024-05-09T17:37:01.219Z,99286.67
2024-05-09T17:39:32.613Z,99288.43
2024-05-09T17:42:04.204Z,99290.34
2024-05-09T17:44:35.113Z,99288.04
2024-05-09T17:47:06.945Z,99291.30
2024-05-09T17:49:37.952Z,99289.83
2024-05-09T17:52:09.612Z,99290.63
2024-05-09T17:54:40.573Z,99294.73
2024-05-09T17:57:11.667Z,99293.23
2024-05-09T17:59:42.712Z,99293.48
2024-05-09T18:02:14.005Z,99294.11
2024-05-09T18:04:45.133Z,99293.98
2024-05-09T18:07:16.341Z,99288.61
2024-05-09T18:09:48.023Z,99293.56
2024-05-09T18:12:19.025Z,99294.64
2024-05-09T18:14:50.026Z,99297.48
2024-05-09T18:17:23.641Z,99296.98
2024-05-09T18:19:56.492Z,99299.23
2024-05-09T18:22:29.932Z,99300.80
2024-05-09T18:25:01.291Z,99300.09
2024-05-09T18:27:32.403Z,99301.27
2024-05-09T18:30:07.059Z,99305.55
2024-05-09T18:32:38.791Z,99305.47
2024-05-09T18:35:10.049Z,99306.44
2024-05-09T18:37:43.469Z,99307.04
2024-05-09T18:40:21.097Z,99310.95
2024-05-09T18:42:58.902Z,99310.67
2024-05-09T18:45:30.639Z,99312.62
2024-05-09T18:48:01.978Z,99315.15
2024-05-09T18:50:37.604Z,99324.77
2024-05-09T18:53:12.981Z,99325.15
2024-05-09T18:55:45.071Z,99324.48
2024-05-09T18:58:17.618Z,99329.52
2024-05-09T19:00:51.226Z,99328.09
2024-05-09T19:03:26.639Z,99332.60
2024-05-09T19:05:57.808Z,99332.52
2024-05-09T19:08:28.740Z,99332.43
2024-05-09T19:11:01.560Z,99335.14
2024-05-09T19:13:32.891Z,99338.48
2024-05-09T19:16:05.283Z,99338.66
2024-05-09T19:18:36.538Z,99343.77
2024-05-09T19:21:08.115Z,99338.54
2024-05-09T19:23:47.149Z,99340.06
2024-05-09T19:26:22.920Z,99346.23
2024-05-09T19:28:54.254Z,99348.14
2024-05-09T19:31:25.826Z,99350.95
2024-05-09T19:33:57.384Z,99351.19
2024-05-09T19:36:28.856Z,99355.09
2024-05-09T19:39:01.331Z,99361.44
2024-05-09T19:41:33.528Z,99359.13
2024-05-09T19:44:05.820Z,99359.62
2024-05-09T19:46:38.012Z,99358.18
2024-05-09T19:49:09.118Z,99362.48
2024-05-09T19:51:40.148Z,99363.56
2024-05-09T19:54:11.361Z,99363.73
2024-05-09T19:56:45.034Z,99365.80
2024-05-09T19:59:17.316Z,99368.59
2024-05-09T20:01:48.616Z,99371.86
2024-05-09T20:04:19.819Z,99376.52
2024-05-09T20:06:51.243Z,99371.14
2024-05-09T20:09:22.446Z,99374.96
2024-05-09T20:11:53.825Z,99377.86
2024-05-09T20:14:25.168Z,99380.00
2024-05-09T20:16:57.011Z,99382.88
2024-05-09T20:19:28.526Z,99384.57
2024-05-09T20:21:59.891Z,99383.39
2024-05-09T20:24:31.132Z,99386.23
2024-05-09T20:27:02.399Z,99383.38
2024-05-09T20:29:33.437Z,99385.88
2024-05-09T20:32:04.981Z,99387.27
2024-05-09T20:34:36.041Z,99386.72
2024-05-09T20:37:07.318Z,99386.74
2024-05-09T20:39:38.425Z,99384.16
2024-05-09T20:42:09.806Z,99383.29
2024-05-09T20:44:40.872Z,99385.88
2024-05-09T20:47:12.118Z,99386.17
2024-05-09T20:49:43.191Z,99381.34
2024-05-09T20:52:14.422Z,99381.41
2024-05-09T20:54:45.587Z,99385.80
2024-05-09T20:57:17.375Z,99383.49
2024-05-09T20:59:48.568Z,99384.48
2024-05-09T21:02:20.088Z,99385.56
2024-05-09T21:04:51.599Z,99388.09
2024-05-09T21:07:22.781Z,99390.10
2024-05-09T21:09:53.825Z,99390.09
2024-05-09T21:12:25.035Z,99387.73
2024-05-09T21:14:56.047Z,99389.23
2024-05-09T21:17:27.231Z,99390.45
2024-05-09T21:19:58.289Z,99388.78
2024-05-09T21:22:28.000Z,99388.99
2024-05-09T21:24:58.876Z,99393.15
2024-05-09T21:27:28.414Z,99390.52
2024-05-09T21:29:59.467Z,99392.23
2024-05-09T21:32:30.681Z,99389.45
2024-05-09T21:35:01.944Z,99390.31
2024-05-09T21:37:32.983Z,99389.65
2024-05-09T21:40:09.161Z,99393.84
2024-05-09T21:42:42.663Z,99392.96
2024-05-09T21:45:13.661Z,99392.72
2024-05-09T21:47:44.630Z,99392.11
2024-05-09T21:50:22.751Z,99396.80
2024-05-09T21:52:59.445Z,99395.78
2024-05-09T21:55:30.669Z,99395.82
2024-05-09T21:58:02.266Z,99397.46
2024-05-09T22:00:38.026Z,99392.02
2024-05-09T22:03:11.608Z,99392.79
2024-05-09T22:05:44.567Z,99388.65
2024-05-09T22:08:16.125Z,99389.07
2024-05-09T22:10:47.178Z,99389.14
2024-05-09T22:13:20.055Z,99387.30
2024-05-09T22:15:51.449Z,99395.45
2024-05-09T22:18:22.731Z,99394.00
2024-05-09T22:20:54.997Z,99396.88
2024-05-09T22:23:26.309Z,99397.65
2024-05-09T22:25:57.126Z,99397.23
2024-05-09T22:28:26.752Z,99395.84
2024-05-09T22:30:57.030Z,99397.73
2024-05-09T22:33:28.036Z,99398.64
2024-05-09T22:35:58.934Z,99397.33
2024-05-09T22:38:28.464Z,99399.63
2024-05-09T22:40:59.555Z,99400.75
2024-05-09T22:43:30.700Z,99399.73
2024-05-09T22:46:03.225Z,99399.08
2024-05-09T22:48:34.834Z,99400.05
2024-05-09T22:51:06.534Z,99397.91
2024-05-09T22:53:37.314Z,99396.99
2024-05-09T22:56:09.362Z,99394.77
2024-05-09T22:58:40.426Z,99397.17
2024-05-09T23:01:17.483Z,99397.73
2024-05-09T23:03:49.127Z,99392.06
2024-05-09T23:06:20.188Z,99390.48
2024-05-09T23:08:51.059Z,99388.30
2024-05-09T23:11:22.095Z,99391.50
2024-05-09T23:13:53.159Z,99387.89
2024-05-09T23:16:22.745Z,99387.31
2024-05-09T23:18:52.675Z,99384.90
2024-05-09T23:21:23.757Z,99382.00
2024-05-09T23:23:54.784Z,99384.40
2024-05-09T23:26:24.381Z,99377.32
2024-05-09T23:28:55.372Z,99372.79
2024-05-09T23:31:25.030Z,99374.90
2024-05-09T23:33:56.347Z,99374.64
2024-05-09T23:36:29.367Z,99374.99
2024-05-09T23:39:00.843Z,99372.02
2024-05-09T23:41:31.869Z,99371.55
2024-05-09T23:44:01.722Z,99370.41
2024-05-09T23:46:32.686Z,99368.01
2024-05-09T23:49:02.344Z,99367.59
2024-05-09T23:51:33.435Z,99363.48
2024-05-09T23:54:04.546Z,99359.33
2024-05-09T23:56:35.639Z,99358.46
2024-05-09T23:59:06.892Z,99353.82
